Time;durP1;ratioP1;P1;durP2;ratioP2;P2;SDS_P1;SDS_P2;PMS_P1;PMS_P2;Temp;Humidity;BMP_temperature;BMP_pressure;BME280_temperature;BME280_humidity;BME280_pressure;Samples;Min_cycle;Max_cycle;Signal;HPM_P1;HPM_P2
2023/08/09 00:01:58;;;;;;;13.83;7.87;;;14.60;99.90;;;;;;4997971;28;20199;-80
2023/08/09 00:04:25;;;;;;;13.30;7.77;;;14.50;99.90;;;;;;4994960;28;20207;-80
2023/08/09 00:06:51;;;;;;;15.10;8.70;;;14.40;99.90;;;;;;4999093;28;20715;-80
2023/08/09 00:09:20;;;;;;;14.87;8.83;;;14.40;99.90;;;;;;5007419;28;20210;-80
2023/08/09 00:11:47;;;;;;;13.30;8.47;;;14.50;99.90;;;;;;5009735;28;20226;-80
2023/08/09 00:14:14;;;;;;;15.10;9.00;;;14.30;99.90;;;;;;5009262;28;20234;-81
2023/08/09 00:16:41;;;;;;;13.10;7.90;;;14.30;99.90;;;;;;5008264;28;20206;-82
2023/08/09 00:19:09;;;;;;;15.40;8.50;;;14.20;99.90;;;;;;5003368;28;20210;-80
2023/08/09 00:21:36;;;;;;;15.97;8.80;;;14.30;99.90;;;;;;5008343;28;20229;-82
2023/08/09 00:24:04;;;;;;;15.00;8.87;;;14.30;99.90;;;;;;4996190;28;20215;-81
2023/08/09 00:26:31;;;;;;;16.60;9.33;;;14.20;99.90;;;;;;5006663;28;20916;-80
2023/08/09 00:28:57;;;;;;;17.10;8.83;;;14.20;99.90;;;;;;5002996;28;20209;-81
2023/08/09 00:31:24;;;;;;;17.23;9.90;;;14.20;99.90;;;;;;4988231;28;20207;-81
2023/08/09 00:33:51;;;;;;;19.23;9.27;;;14.00;99.90;;;;;;5005228;28;20290;-81
2023/08/09 00:36:18;;;;;;;19.47;10.50;;;14.10;99.90;;;;;;5003486;28;20704;-81
2023/08/09 00:38:45;;;;;;;20.00;9.97;;;14.10;99.90;;;;;;4979580;28;20265;-81
2023/08/09 00:41:12;;;;;;;17.60;9.97;;;14.10;99.90;;;;;;4999491;28;20764;-80
2023/08/09 00:43:39;;;;;;;19.90;10.40;;;14.10;99.90;;;;;;5006366;28;20214;-81
2023/08/09 00:46:06;;;;;;;21.93;11.33;;;13.90;99.90;;;;;;5007528;28;20242;-79
2023/08/09 00:48:34;;;;;;;20.20;10.70;;;14.00;99.90;;;;;;4993591;28;20217;-81
2023/08/09 00:51:01;;;;;;;19.27;10.60;;;14.00;99.90;;;;;;5012621;28;20256;-79
2023/08/09 00:53:28;;;;;;;18.80;10.27;;;14.00;99.90;;;;;;5005212;28;20658;-82
2023/08/09 00:55:55;;;;;;;20.03;10.27;;;14.00;99.90;;;;;;4992691;28;20266;-81
2023/08/09 00:58:23;;;;;;;19.13;10.33;;;14.00;99.90;;;;;;4992574;28;20222;-81
2023/08/09 01:00:50;;;;;;;18.70;9.87;;;14.00;99.90;;;;;;4995613;28;20241;-82
2023/08/09 01:03:16;;;;;;;19.67;10.90;;;14.00;99.90;;;;;;5016198;28;20653;-82
2023/08/09 01:05:44;;;;;;;21.93;11.23;;;14.00;99.90;;;;;;4999553;28;20194;-82
2023/08/09 01:08:19;;;;;;;23.67;11.50;;;14.00;99.90;;;;;;5037223;28;20194;-80
2023/08/09 01:11:03;;;;;;;24.60;11.87;;;14.00;99.90;;;;;;5025617;28;20194;-80
2023/08/09 01:13:31;;;;;;;22.20;11.13;;;14.00;99.90;;;;;;5032634;28;20222;-80
2023/08/09 01:15:59;;;;;;;24.67;12.70;;;14.00;99.90;;;;;;5003361;28;20759;-81
2023/08/09 01:18:27;;;;;;;23.37;11.67;;;14.00;99.90;;;;;;5009088;28;20214;-81
2023/08/09 01:20:54;;;;;;;22.93;11.27;;;14.00;99.90;;;;;;5004075;28;20648;-79
2023/08/09 01:23:21;;;;;;;27.70;12.60;;;14.00;99.90;;;;;;4997619;28;20267;-79
2023/08/09 01:25:48;;;;;;;26.73;12.20;;;14.10;99.90;;;;;;5002350;28;20211;-80
2023/08/09 01:28:16;;;;;;;25.43;11.80;;;14.10;99.90;;;;;;4989295;28;20218;-81
2023/08/09 01:30:45;;;;;;;24.30;11.80;;;14.10;99.90;;;;;;5000431;28;20211;-80
2023/08/09 01:33:14;;;;;;;28.10;12.53;;;14.20;99.90;;;;;;5007037;28;20217;-81
2023/08/09 01:35:49;;;;;;;27.80;12.40;;;14.20;99.90;;;;;;4988078;28;20221;-80
2023/08/09 01:38:22;;;;;;;27.77;12.03;;;14.20;99.90;;;;;;4979694;28;20511;-80
2023/08/09 01:40:50;;;;;;;25.03;12.17;;;14.10;99.90;;;;;;4996982;28;20234;-80
2023/08/09 01:43:17;;;;;;;26.80;11.87;;;14.30;99.90;;;;;;4995906;28;20223;-80
2023/08/09 01:45:44;;;;;;;23.67;11.83;;;14.20;99.90;;;;;;5002092;28;20203;-80
2023/08/09 01:48:12;;;;;;;26.13;12.17;;;14.20;99.90;;;;;;5000593;28;20865;-80
2023/08/09 01:50:40;;;;;;;29.87;11.77;;;14.20;99.90;;;;;;5000914;28;20203;-81
2023/08/09 01:53:07;;;;;;;24.17;12.13;;;14.20;99.90;;;;;;5003987;28;20285;-80
2023/08/09 01:55:34;;;;;;;27.80;11.70;;;14.20;99.90;;;;;;4982852;28;20210;-81
2023/08/09 01:58:01;;;;;;;27.67;12.33;;;14.20;99.90;;;;;;5011541;28;20595;-80
2023/08/09 02:00:28;;;;;;;23.70;11.40;;;14.30;99.90;;;;;;4991147;28;20238;-79
2023/08/09 02:02:55;;;;;;;25.17;12.37;;;14.30;99.90;;;;;;5001498;28;20670;-80
2023/08/09 02:05:22;;;;;;;24.87;11.67;;;14.30;99.90;;;;;;5005689;28;20207;-81
2023/08/09 02:07:50;;;;;;;23.10;10.57;;;14.30;99.90;;;;;;5002449;28;20213;-81
2023/08/09 02:10:17;;;;;;;21.93;10.80;;;14.30;99.90;;;;;;4990439;28;20245;-80
2023/08/09 02:12:47;;;;;;;23.10;11.20;;;14.50;99.90;;;;;;5008049;28;20269;-80
2023/08/09 02:15:16;;;;;;;25.83;12.60;;;14.40;99.90;;;;;;4993474;28;20321;-80
2023/08/09 02:17:44;;;;;;;27.50;12.47;;;14.40;99.90;;;;;;5011591;28;20213;-80
2023/08/09 02:20:12;;;;;;;27.03;11.57;;;14.40;99.90;;;;;;5011525;28;20198;-80
2023/08/09 02:22:39;;;;;;;22.43;10.03;;;14.40;99.90;;;;;;4992026;28;20238;-81
2023/08/09 02:25:07;;;;;;;25.03;12.10;;;14.40;99.90;;;;;;5007510;28;20221;-80
2023/08/09 02:27:34;;;;;;;28.47;12.13;;;14.40;99.90;;;;;;4998245;28;20223;-81
2023/08/09 02:30:03;;;;;;;29.50;12.43;;;14.40;99.90;;;;;;5010795;28;20214;-80
2023/08/09 02:32:34;;;;;;;24.10;11.33;;;14.50;99.90;;;;;;4993468;28;20237;-81
2023/08/09 02:35:03;;;;;;;22.63;10.03;;;14.50;99.90;;;;;;5003098;28;20245;-81
2023/08/09 02:37:30;;;;;;;27.43;11.87;;;14.60;99.90;;;;;;4989899;28;20216;-80
2023/08/09 02:39:58;;;;;;;25.80;11.00;;;14.60;99.90;;;;;;5011355;28;20202;-80
2023/08/09 02:42:24;;;;;;;25.40;11.17;;;14.50;99.90;;;;;;4997362;28;20234;-79
2023/08/09 02:44:51;;;;;;;22.73;10.97;;;14.60;99.90;;;;;;5011514;28;20253;-80
2023/08/09 02:47:18;;;;;;;22.67;10.67;;;14.60;99.90;;;;;;5006679;28;20694;-80
2023/08/09 02:49:45;;;;;;;26.43;11.00;;;14.50;99.90;;;;;;5002298;28;20215;-82
2023/08/09 02:52:12;;;;;;;25.13;11.20;;;14.50;99.90;;;;;;4987965;28;20198;-80
2023/08/09 02:54:39;;;;;;;25.43;11.87;;;14.60;99.90;;;;;;4986791;28;20285;-81
2023/08/09 02:57:10;;;;;;;20.40;10.57;;;14.60;99.90;;;;;;5002855;28;20226;-81
2023/08/09 02:59:37;;;;;;;23.90;10.17;;;14.50;99.90;;;;;;5002398;28;20238;-80
2023/08/09 03:02:05;;;;;;;23.87;10.07;;;14.50;99.90;;;;;;5002214;28;20288;-81
2023/08/09 03:04:33;;;;;;;23.77;10.40;;;14.60;99.90;;;;;;4987874;28;20211;-80
2023/08/09 03:07:00;;;;;;;25.20;10.63;;;14.60;99.90;;;;;;5005731;28;20247;-79
2023/08/09 03:09:27;;;;;;;25.07;11.07;;;14.60;99.90;;;;;;5003344;28;20281;-79
2023/08/09 03:11:54;;;;;;;26.43;11.03;;;14.60;99.90;;;;;;5003659;28;20215;-82
2023/08/09 03:14:21;;;;;;;26.07;11.43;;;14.60;99.90;;;;;;5007557;28;20300;-81
2023/08/09 03:16:48;;;;;;;26.97;11.03;;;14.60;99.90;;;;;;5006567;28;20215;-80
2023/08/09 03:19:16;;;;;;;25.10;10.50;;;14.70;99.90;;;;;;4998915;28;20208;-80
2023/08/09 03:21:43;;;;;;;21.73;9.93;;;14.70;99.90;;;;;;5007725;28;20232;-79
2023/08/09 03:24:09;;;;;;;22.97;10.70;;;14.60;99.90;;;;;;5008508;28;20215;-81
2023/08/09 03:26:36;;;;;;;21.40;10.10;;;14.60;99.90;;;;;;5002351;28;20687;-79
2023/08/09 03:29:03;;;;;;;24.57;11.27;;;14.70;99.90;;;;;;5010288;28;20207;-80
2023/08/09 03:31:30;;;;;;;25.33;10.80;;;14.60;99.90;;;;;;4995767;28;20218;-82
2023/08/09 03:34:00;;;;;;;24.50;10.23;;;14.70;99.90;;;;;;4998037;28;20338;-82
2023/08/09 03:36:27;;;;;;;22.87;10.00;;;14.70;99.90;;;;;;4981331;28;20580;-80
2023/08/09 03:38:56;;;;;;;25.60;11.20;;;14.60;99.90;;;;;;5011318;28;20202;-80
2023/08/09 03:41:23;;;;;;;26.80;11.60;;;14.60;99.90;;;;;;4988678;28;20227;-81
2023/08/09 03:43:50;;;;;;;26.97;11.60;;;14.60;99.90;;;;;;5001832;28;20204;-80
2023/08/09 03:46:16;;;;;;;21.57;10.40;;;14.60;99.90;;;;;;4996437;28;20207;-82
2023/08/09 03:48:43;;;;;;;21.73;10.00;;;14.70;99.90;;;;;;4990121;28;20297;-80
2023/08/09 03:51:10;;;;;;;24.17;10.77;;;14.70;99.90;;;;;;4996201;28;20203;-79
2023/08/09 03:53:37;;;;;;;20.37;10.47;;;14.70;99.90;;;;;;4983599;28;20202;-80
2023/08/09 03:56:04;;;;;;;20.13;9.40;;;14.60;99.90;;;;;;4997404;28;20218;-82
2023/08/09 03:58:32;;;;;;;18.27;9.10;;;14.60;99.90;;;;;;4987701;28;20597;-79
2023/08/09 04:00:59;;;;;;;20.30;9.30;;;14.60;99.90;;;;;;5002172;28;20656;-82
2023/08/09 04:03:26;;;;;;;18.60;9.10;;;14.60;99.90;;;;;;5003039;28;20648;-82
2023/08/09 04:05:53;;;;;;;21.23;9.20;;;14.60;99.90;;;;;;5002531;28;20281;-82
2023/08/09 04:08:21;;;;;;;19.40;9.73;;;14.70;99.90;;;;;;5005847;28;20215;-80
2023/08/09 04:10:49;;;;;;;25.50;10.73;;;14.70;99.90;;;;;;5000922;28;20690;-81
2023/08/09 04:13:15;;;;;;;22.93;10.20;;;14.70;99.90;;;;;;4985569;28;20218;-82
2023/08/09 04:15:42;;;;;;;20.23;10.00;;;14.70;99.90;;;;;;4994907;28;20234;-80
2023/08/09 04:18:09;;;;;;;21.80;10.03;;;14.70;99.90;;;;;;5004686;28;20218;-84
2023/08/09 04:20:38;;;;;;;23.50;10.17;;;14.70;99.90;;;;;;4996309;28;20202;-80
2023/08/09 04:23:05;;;;;;;19.57;9.03;;;14.70;99.90;;;;;;4994194;28;20221;-80
2023/08/09 04:25:32;;;;;;;24.37;10.77;;;14.80;99.90;;;;;;4996740;28;20666;-81
2023/08/09 04:27:59;;;;;;;20.43;9.40;;;14.80;99.90;;;;;;5002698;28;20590;-80
2023/08/09 04:30:26;;;;;;;24.13;10.67;;;14.80;99.90;;;;;;5003665;28;20214;-80
2023/08/09 04:32:53;;;;;;;18.60;9.27;;;14.80;99.90;;;;;;5002666;28;20211;-80
2023/08/09 04:35:20;;;;;;;21.67;9.47;;;14.80;99.90;;;;;;4992966;28;20207;-82
2023/08/09 04:37:48;;;;;;;19.23;10.13;;;14.90;99.90;;;;;;5004192;28;20241;-81
2023/08/09 04:40:14;;;;;;;23.07;9.83;;;14.90;99.90;;;;;;4997902;28;20217;-79
2023/08/09 04:42:41;;;;;;;17.53;9.37;;;14.90;99.90;;;;;;5006804;28;20825;-80
2023/08/09 04:45:10;;;;;;;17.23;8.63;;;14.90;99.90;;;;;;5002044;28;20553;-83
2023/08/09 04:47:37;;;;;;;16.87;8.73;;;14.90;99.90;;;;;;4998844;28;20210;-81
2023/08/09 04:50:05;;;;;;;19.10;9.20;;;14.90;99.90;;;;;;5004365;28;20203;-80
2023/08/09 04:52:33;;;;;;;19.50;9.13;;;15.00;99.90;;;;;;5004363;28;20218;-79
2023/08/09 04:55:02;;;;;;;18.80;9.10;;;14.90;99.90;;;;;;4999053;28;20207;-80
2023/08/09 04:57:32;;;;;;;15.20;7.97;;;15.00;99.90;;;;;;5001780;28;20695;-81
2023/08/09 05:00:08;;;;;;;17.13;8.23;;;15.00;99.90;;;;;;5002062;28;20191;-80
2023/08/09 05:02:36;;;;;;;16.67;8.33;;;15.00;99.90;;;;;;5002089;28;20301;-81
2023/08/09 05:05:07;;;;;;;16.20;7.63;;;14.90;99.90;;;;;;5004019;28;20686;-81
2023/08/09 05:07:34;;;;;;;13.30;7.33;;;15.00;99.90;;;;;;5005639;28;20704;-80
2023/08/09 05:10:03;;;;;;;12.87;7.70;;;14.90;99.90;;;;;;5000138;28;20197;-79
2023/08/09 05:12:31;;;;;;;13.33;7.97;;;15.00;99.90;;;;;;5007763;28;20218;-79
2023/08/09 05:14:57;;;;;;;15.90;8.43;;;15.00;99.90;;;;;;4969953;28;1088810;-78
2023/08/09 05:17:24;;;;;;;13.70;7.70;;;15.00;99.90;;;;;;4998688;28;20203;-79
2023/08/09 05:19:51;;;;;;;13.90;7.63;;;14.90;99.90;;;;;;4998235;28;20253;-80
2023/08/09 05:22:19;;;;;;;16.63;8.17;;;15.00;99.90;;;;;;5007324;28;20223;-80
2023/08/09 05:24:46;;;;;;;13.27;7.37;;;15.00;99.90;;;;;;5011549;28;20276;-80
2023/08/09 05:27:13;;;;;;;14.80;7.97;;;15.10;99.90;;;;;;5010845;28;20230;-80
2023/08/09 05:29:40;;;;;;;14.17;7.83;;;15.10;99.90;;;;;;5008680;28;20207;-80
2023/08/09 05:32:07;;;;;;;16.07;7.60;;;15.10;99.90;;;;;;5006417;28;20213;-81
2023/08/09 05:34:34;;;;;;;14.27;7.40;;;15.10;99.90;;;;;;5010223;28;20259;-80
2023/08/09 05:37:00;;;;;;;13.90;8.33;;;15.00;99.90;;;;;;5003100;28;20218;-79
2023/08/09 05:39:27;;;;;;;14.87;7.97;;;15.10;99.90;;;;;;5012095;28;20702;-78
2023/08/09 05:41:54;;;;;;;13.90;7.50;;;15.10;99.90;;;;;;5001084;28;20234;-80
2023/08/09 05:44:21;;;;;;;12.80;7.20;;;15.20;99.90;;;;;;5011850;28;20218;-80
2023/08/09 05:46:48;;;;;;;12.83;7.43;;;15.30;99.90;;;;;;5010466;28;20202;-80
2023/08/09 05:49:15;;;;;;;12.95;6.85;;;15.40;99.90;;;;;;5011434;28;20580;-81
2023/08/09 05:51:42;;;;;;;14.17;7.50;;;15.40;99.90;;;;;;5010447;28;20206;-82
2023/08/09 05:54:09;;;;;;;13.68;6.50;;;15.40;99.90;;;;;;5010963;28;20694;-83
2023/08/09 05:56:36;;;;;;;12.97;7.13;;;15.50;99.90;;;;;;5012492;28;20281;-84
2023/08/09 05:59:04;;;;;;;11.95;6.75;;;15.50;99.90;;;;;;5011766;28;20210;-80
2023/08/09 06:01:31;;;;;;;11.60;6.40;;;15.60;99.90;;;;;;5010542;28;20229;-81
2023/08/09 06:03:58;;;;;;;10.17;6.47;;;15.70;99.90;;;;;;5011653;28;20225;-80
2023/08/09 06:06:25;;;;;;;19.35;6.85;;;15.70;99.90;;;;;;5011563;28;20264;-79
2023/08/09 06:08:52;;;;;;;10.98;6.40;;;15.70;99.90;;;;;;5011618;28;20202;-80
2023/08/09 06:11:19;;;;;;;10.80;6.50;;;15.80;99.90;;;;;;5011272;28;20442;-81
2023/08/09 06:13:46;;;;;;;12.93;6.47;;;15.80;99.90;;;;;;5011463;28;20214;-82
2023/08/09 06:16:13;;;;;;;12.00;7.15;;;15.90;99.90;;;;;;5011154;28;20627;-80
2023/08/09 06:18:40;;;;;;;11.20;6.97;;;16.10;99.90;;;;;;4995175;28;20529;-82
2023/08/09 06:21:06;;;;;;;11.85;7.07;;;16.20;99.90;;;;;;4993039;28;20541;-79
2023/08/09 06:23:33;;;;;;;9.63;6.30;;;16.30;99.90;;;;;;4994096;28;20705;-81
2023/08/09 06:26:00;;;;;;;12.18;6.90;;;16.30;99.90;;;;;;5011187;28;20233;-80
2023/08/09 06:28:27;;;;;;;11.02;6.43;;;16.40;99.90;;;;;;5010073;28;20211;-80
2023/08/09 06:30:54;;;;;;;10.18;5.97;;;16.40;99.90;;;;;;4984162;28;20230;-78
2023/08/09 06:33:21;;;;;;;9.60;6.78;;;16.60;99.90;;;;;;5003828;28;20206;-78
2023/08/09 06:35:48;;;;;;;11.45;7.35;;;16.60;99.90;;;;;;5003063;28;20302;-78
2023/08/09 06:38:15;;;;;;;8.90;6.03;;;16.80;99.90;;;;;;4983575;28;20668;-77
2023/08/09 06:40:42;;;;;;;8.50;5.65;;;17.60;99.90;;;;;;4979449;28;20199;-79
2023/08/09 06:43:09;;;;;;;7.68;5.07;;;18.80;99.90;;;;;;4980994;28;20234;-79
2023/08/09 06:45:38;;;;;;;7.53;5.30;;;19.20;99.90;;;;;;4996600;28;20206;-78
2023/08/09 06:48:07;;;;;;;9.25;5.75;;;19.30;99.90;;;;;;4996716;28;20229;-77
2023/08/09 06:50:35;;;;;;;8.18;5.82;;;19.20;99.90;;;;;;4987323;28;20817;-78
2023/08/09 06:53:02;;;;;;;8.55;5.53;;;19.20;99.90;;;;;;4984572;28;20210;-79
2023/08/09 06:55:29;;;;;;;8.95;5.65;;;19.10;99.90;;;;;;4978558;28;20194;-79
2023/08/09 06:57:56;;;;;;;8.93;5.35;;;18.90;99.90;;;;;;5005583;28;20219;-79
2023/08/09 07:00:22;;;;;;;9.23;5.90;;;19.00;99.90;;;;;;4992393;28;20195;-79
2023/08/09 07:02:50;;;;;;;7.82;5.13;;;18.90;99.90;;;;;;5011656;28;20245;-80
2023/08/09 07:05:21;;;;;;;8.73;5.40;;;19.10;99.90;;;;;;5016040;28;20203;-78
2023/08/09 07:07:54;;;;;;;9.82;5.78;;;19.20;99.90;;;;;;5013120;28;20203;-80
2023/08/09 07:10:21;;;;;;;9.75;5.57;;;19.30;99.90;;;;;;4990503;28;20551;-78
2023/08/09 07:12:48;;;;;;;7.15;5.25;;;19.40;99.90;;;;;;5002196;28;20804;-79
2023/08/09 07:15:15;;;;;;;9.05;5.82;;;19.40;99.90;;;;;;4995032;28;20716;-78
2023/08/09 07:17:42;;;;;;;7.35;5.13;;;19.70;99.90;;;;;;4995477;28;20571;-79
2023/08/09 07:20:11;;;;;;;5.50;4.32;;;20.20;99.90;;;;;;5005996;28;20202;-78
2023/08/09 07:22:39;;;;;;;6.55;4.70;;;;;;;;;;5002155;28;20234;-78
2023/08/09 07:25:10;;;;;;;7.18;4.57;;;21.90;99.90;;;;;;5002329;28;20207;-81
2023/08/09 07:27:43;;;;;;;6.55;4.80;;;22.50;99.90;;;;;;4995209;28;20356;-79
2023/08/09 07:30:11;;;;;;;6.40;4.70;;;22.50;99.90;;;;;;4998888;28;20281;-79
2023/08/09 07:32:38;;;;;;;7.45;4.70;;;22.40;99.90;;;;;;4997970;28;20257;-78
2023/08/09 07:35:06;;;;;;;6.40;4.75;;;22.10;99.90;;;;;;4998412;28;20294;-78
2023/08/09 07:37:34;;;;;;;6.25;4.38;;;21.90;99.90;;;;;;4991656;28;20731;-79
2023/08/09 07:40:03;;;;;;;5.80;4.50;;;22.20;99.90;;;;;;5000634;28;20210;-79
2023/08/09 07:42:30;;;;;;;5.32;4.03;;;22.50;99.90;;;;;;5006928;28;20222;-80
2023/08/09 07:44:59;;;;;;;5.00;4.00;;;22.80;99.90;;;;;;4993419;28;20294;-80
2023/08/09 07:47:26;;;;;;;6.05;4.72;;;23.20;99.90;;;;;;4983929;28;20208;-79
2023/08/09 07:49:52;;;;;;;4.53;3.60;;;23.80;99.90;;;;;;4994740;28;20203;-80
2023/08/09 07:52:19;;;;;;;5.70;3.78;;;24.20;99.90;;;;;;4996018;28;20226;-79
2023/08/09 07:54:46;;;;;;;5.05;3.80;;;24.50;99.90;;;;;;4996276;28;20317;-79
2023/08/09 07:57:14;;;;;;;5.47;4.35;;;24.90;99.90;;;;;;4989466;28;20679;-80
2023/08/09 07:59:41;;;;;;;5.03;3.80;;;24.90;99.90;;;;;;5004699;28;20203;-79
2023/08/09 08:02:07;;;;;;;5.22;3.70;;;25.20;99.90;;;;;;5001932;28;20739;-79
2023/08/09 08:04:34;;;;;;;4.97;3.95;;;25.40;99.90;;;;;;5002413;28;20230;-81
2023/08/09 08:07:03;;;;;;;5.18;3.85;;;25.80;99.90;;;;;;5007791;28;20335;-80
2023/08/09 08:09:32;;;;;;;5.03;4.00;;;25.70;99.90;;;;;;5004272;28;20217;-79
2023/08/09 08:12:00;;;;;;;4.75;4.07;;;25.10;99.90;;;;;;5007452;28;20281;-80
2023/08/09 08:14:39;;;;;;;6.35;4.65;;;25.20;99.90;;;;;;5000837;28;20325;-79
2023/08/09 08:17:06;;;;;;;4.78;4.07;;;25.40;99.90;;;;;;4993037;28;20246;-81
2023/08/09 08:19:33;;;;;;;6.95;5.22;;;25.50;99.90;;;;;;4998110;28;20297;-80
2023/08/09 08:22:00;;;;;;;7.25;4.70;;;25.70;99.90;;;;;;5008680;28;20210;-80
2023/08/09 08:24:28;;;;;;;5.40;4.45;;;25.90;99.90;;;;;;4996237;28;20395;-81
2023/08/09 08:26:55;;;;;;;5.72;4.78;;;26.40;99.90;;;;;;4999207;28;20277;-81
2023/08/09 08:29:23;;;;;;;4.93;4.05;;;26.70;99.90;;;;;;5007333;28;20294;-84
2023/08/09 08:31:51;;;;;;;8.30;4.80;;;26.40;99.90;;;;;;4998366;28;20190;-80
2023/08/09 08:34:21;;;;;;;6.53;4.72;;;26.40;99.90;;;;;;4995442;28;20326;-80
2023/08/09 08:36:49;;;;;;;5.10;4.60;;;26.20;99.90;;;;;;5005390;28;20195;-82
2023/08/09 08:39:19;;;;;;;6.38;5.18;;;25.60;99.90;;;;;;5004487;28;20209;-81
2023/08/09 08:41:49;;;;;;;5.60;4.20;;;25.30;99.90;;;;;;4984728;28;20218;-82
2023/08/09 08:44:16;;;;;;;8.68;4.70;;;25.10;99.90;;;;;;5001500;28;20238;-84
2023/08/09 08:46:43;;;;;;;4.80;4.30;;;25.30;99.90;;;;;;5004069;28;20221;-83
2023/08/09 08:49:17;;;;;;;6.65;4.20;;;25.60;99.90;;;;;;5000988;28;20208;-82
2023/08/09 08:51:49;;;;;;;6.57;4.35;;;25.90;99.90;;;;;;4992445;28;20317;-81
2023/08/09 08:54:16;;;;;;;5.30;4.50;;;25.80;99.90;;;;;;4994455;28;20289;-82
2023/08/09 08:56:43;;;;;;;6.85;4.43;;;25.90;99.90;;;;;;4984981;28;20277;-84
2023/08/09 08:59:11;;;;;;;6.47;3.88;;;25.90;99.90;;;;;;4982517;28;20210;-80
2023/08/09 09:01:37;;;;;;;4.53;3.92;;;25.40;99.90;;;;;;5005251;28;20218;-82
2023/08/09 09:04:05;;;;;;;4.57;3.90;;;25.30;99.90;;;;;;5002179;28;20862;-82
2023/08/09 09:06:32;;;;;;;5.00;3.33;;;25.40;99.90;;;;;;5008688;28;20203;-82
2023/08/09 09:08:59;;;;;;;4.13;3.72;;;25.40;99.90;;;;;;5010238;28;20207;-81
2023/08/09 09:11:26;;;;;;;5.38;3.47;;;25.10;99.90;;;;;;5007550;28;20219;-83
2023/08/09 09:13:53;;;;;;;5.15;3.20;;;24.90;99.90;;;;;;5007374;28;20593;-80
2023/08/09 09:16:21;;;;;;;6.05;3.47;;;24.90;99.90;;;;;;4997959;28;20234;-78
2023/08/09 09:18:48;;;;;;;5.57;3.65;;;25.00;99.90;;;;;;5000041;28;20223;-79
2023/08/09 09:21:17;;;;;;;4.80;3.70;;;25.10;99.90;;;;;;5006759;28;20207;-80
2023/08/09 09:23:45;;;;;;;5.55;3.50;;;24.80;99.90;;;;;;4998022;28;20223;-79
2023/08/09 09:26:14;;;;;;;5.18;3.25;;;24.50;99.90;;;;;;4982692;28;20203;-80
2023/08/09 09:28:44;;;;;;;3.50;2.75;;;24.40;99.90;;;;;;5001493;28;20202;-80
2023/08/09 09:31:17;;;;;;;4.18;3.30;;;24.50;99.90;;;;;;5005770;28;20502;-80
2023/08/09 09:33:49;;;;;;;4.00;2.78;;;24.70;99.90;;;;;;5000871;28;20310;-81
2023/08/09 09:36:19;;;;;;;3.45;2.47;;;24.90;99.90;;;;;;4996080;28;20207;-81
2023/08/09 09:38:53;;;;;;;4.90;2.63;;;25.20;99.90;;;;;;5006244;28;20218;-78
2023/08/09 09:41:21;;;;;;;4.50;2.70;;;25.10;99.90;;;;;;5005788;28;20285;-80
2023/08/09 09:43:52;;;;;;;5.07;3.10;;;24.80;99.90;;;;;;4985318;28;20237;-78
2023/08/09 09:46:19;;;;;;;3.10;2.20;;;24.80;99.90;;;;;;4990834;28;20289;-79
2023/08/09 09:49:03;;;;;;;2.55;1.88;;;24.90;99.90;;;;;;4996517;28;20210;-81
2023/08/09 09:51:30;;;;;;;3.05;1.73;;;24.70;99.90;;;;;;5000392;28;20305;-80
2023/08/09 09:53:57;;;;;;;2.30;2.03;;;24.50;99.90;;;;;;5006415;28;20242;-79
2023/08/09 09:56:25;;;;;;;2.72;2.08;;;24.30;99.90;;;;;;4988477;28;20654;-80
2023/08/09 09:58:52;;;;;;;2.83;2.25;;;24.10;99.90;;;;;;5007358;28;20203;-79
2023/08/09 10:01:30;;;;;;;3.85;2.40;;;24.10;99.90;;;;;;5007841;28;20195;-79
2023/08/09 10:04:08;;;;;;;2.95;2.30;;;24.20;99.90;;;;;;5007380;28;20242;-80
2023/08/09 10:06:42;;;;;;;4.55;2.35;;;24.40;99.90;;;;;;5011075;28;20562;-81
2023/08/09 10:09:10;;;;;;;4.20;2.50;;;24.20;99.90;;;;;;5005574;28;20658;-80
2023/08/09 10:11:40;;;;;;;2.20;2.00;;;24.30;99.90;;;;;;5006601;28;20218;-81
2023/08/09 10:14:08;;;;;;;2.95;2.08;;;24.20;99.90;;;;;;5009385;28;20206;-81
2023/08/09 10:16:36;;;;;;;4.18;2.33;;;24.00;99.90;;;;;;5010988;28;20210;-81
2023/08/09 10:19:12;;;;;;;2.05;1.85;;;23.80;99.90;;;;;;5010969;28;20217;-79
2023/08/09 10:21:40;;;;;;;4.03;1.90;;;23.80;99.90;;;;;;5009790;28;20240;-81
2023/08/09 10:24:10;;;;;;;3.25;2.20;;;23.80;99.90;;;;;;5011527;28;20265;-80
2023/08/09 10:26:39;;;;;;;4.32;1.55;;;23.70;99.90;;;;;;5011160;28;20218;-81
2023/08/09 10:29:12;;;;;;;3.65;2.13;;;23.70;99.90;;;;;;5011157;28;20217;-81
2023/08/09 10:31:51;;;;;;;2.40;2.13;;;23.80;99.90;;;;;;5014485;28;20302;-81
2023/08/09 10:34:20;;;;;;;6.22;2.25;;;23.70;99.90;;;;;;5011450;28;20214;-80
2023/08/09 10:36:53;;;;;;;6.13;2.38;;;23.90;99.90;;;;;;5011277;28;20290;-79
2023/08/09 10:39:21;;;;;;;4.13;2.80;;;24.00;99.90;;;;;;4993806;28;20225;-80
2023/08/09 10:41:58;;;;;;;6.05;2.70;;;24.10;99.90;;;;;;5008462;28;20278;-80
2023/08/09 10:44:41;;;;;;;3.25;2.30;;;24.10;99.90;;;;;;5007683;28;20222;-80
2023/08/09 10:47:18;;;;;;;3.40;2.40;;;24.20;99.90;;;;;;5000040;28;20674;-81
2023/08/09 10:49:47;;;;;;;3.60;2.40;;;24.20;99.90;;;;;;5010997;28;20260;-80
2023/08/09 10:52:19;;;;;;;4.85;2.55;;;24.20;99.90;;;;;;5006593;28;20202;-80
2023/08/09 10:55:04;;;;;;;4.15;2.50;;;24.30;99.90;;;;;;5010610;28;20687;-81
2023/08/09 10:57:43;;;;;;;4.88;2.30;;;24.20;99.90;;;;;;5004243;28;20815;-80
2023/08/09 11:00:12;;;;;;;4.18;2.30;;;24.10;99.90;;;;;;5001078;28;20237;-80
2023/08/09 11:02:46;;;;;;;3.38;2.30;;;24.20;99.90;;;;;;5004072;28;20194;-82
2023/08/09 11:05:14;;;;;;;3.05;1.95;;;24.30;99.90;;;;;;4999552;28;20195;-82
2023/08/09 11:07:45;;;;;;;4.72;2.30;;;24.50;99.90;;;;;;4983950;28;20197;-80
2023/08/09 11:10:17;;;;;;;3.75;2.45;;;24.80;99.90;;;;;;5009585;28;20249;-82
2023/08/09 11:12:45;;;;;;;2.17;1.98;;;24.90;99.90;;;;;;4980358;28;20225;-80
2023/08/09 11:15:12;;;;;;;3.80;1.85;;;25.10;99.90;;;;;;5008998;28;20234;-80
2023/08/09 11:17:50;;;;;;;2.72;2.28;;;25.10;99.90;;;;;;4992181;28;20203;-82
2023/08/09 11:20:18;;;;;;;5.25;2.40;;;25.20;99.90;;;;;;5003244;28;20309;-81
2023/08/09 11:22:56;;;;;;;3.90;2.30;;;25.10;99.90;;;;;;5003937;28;20211;-81
2023/08/09 11:25:24;;;;;;;3.58;2.30;;;24.80;99.90;;;;;;5009588;28;20217;-80
2023/08/09 11:27:53;;;;;;;5.07;2.38;;;24.70;99.90;;;;;;5004303;28;20215;-79
2023/08/09 11:30:22;;;;;;;3.80;2.30;;;24.50;99.90;;;;;;5009698;28;20214;-82
2023/08/09 11:33:00;;;;;;;2.80;2.13;;;24.50;99.90;;;;;;5009079;28;20655;-81
2023/08/09 11:35:33;;;;;;;2.42;2.03;;;24.50;99.90;;;;;;4996662;28;20218;-82
2023/08/09 11:38:00;;;;;;;2.78;1.95;;;24.50;99.90;;;;;;4992449;28;20686;-81
2023/08/09 11:40:27;;;;;;;2.30;2.10;;;24.40;99.90;;;;;;5008994;28;20202;-80
2023/08/09 11:42:59;;;;;;;4.30;2.45;;;24.50;99.90;;;;;;5005997;28;20313;-80
2023/08/09 11:45:26;;;;;;;2.22;2.03;;;24.50;99.90;;;;;;4992247;28;20233;-81
2023/08/09 11:47:54;;;;;;;4.07;2.08;;;24.50;99.90;;;;;;5008962;28;20206;-81
2023/08/09 11:50:24;;;;;;;3.05;2.15;;;24.40;99.90;;;;;;5010024;28;20222;-82
2023/08/09 11:52:52;;;;;;;3.50;2.40;;;24.40;99.90;;;;;;4991455;28;20209;-81
2023/08/09 11:55:21;;;;;;;3.00;2.70;;;24.30;99.90;;;;;;5009831;28;20203;-81
2023/08/09 11:57:49;;;;;;;5.28;3.10;;;24.10;99.90;;;;;;5008715;28;20237;-78
2023/08/09 12:00:17;;;;;;;3.25;2.13;;;24.20;99.90;;;;;;5008283;28;20632;-81
2023/08/09 12:02:45;;;;;;;2.70;2.30;;;24.20;99.90;;;;;;5010400;28;20210;-80
2023/08/09 12:05:16;;;;;;;2.83;2.53;;;24.10;99.90;;;;;;4992279;28;20224;-81
2023/08/09 12:07:46;;;;;;;3.88;2.47;;;24.30;99.90;;;;;;5009424;28;20265;-82
2023/08/09 12:10:17;;;;;;;4.38;2.65;;;24.30;99.90;;;;;;5008696;28;20260;-81
2023/08/09 12:12:44;;;;;;;4.15;2.67;;;24.30;99.90;;;;;;5000944;28;20222;-81
2023/08/09 12:15:11;;;;;;;4.93;2.88;;;24.10;99.90;;;;;;4995035;28;20249;-81
2023/08/09 12:17:38;;;;;;;3.90;2.42;;;24.20;99.90;;;;;;5002916;28;20256;-81
2023/08/09 12:20:07;;;;;;;4.75;3.25;;;23.90;99.90;;;;;;5003666;28;20202;-82
2023/08/09 12:22:34;;;;;;;3.97;3.25;;;23.70;99.90;;;;;;5006269;28;20205;-80
2023/08/09 12:25:02;;;;;;;5.65;2.63;;;23.80;99.90;;;;;;5004460;28;20258;-81
2023/08/09 12:27:29;;;;;;;3.10;2.70;;;23.90;99.90;;;;;;5007019;28;20695;-80
2023/08/09 12:29:56;;;;;;;2.38;2.13;;;24.10;99.90;;;;;;5006002;28;20207;-81
2023/08/09 12:32:23;;;;;;;3.53;2.50;;;24.50;99.90;;;;;;4998571;28;20291;-82
2023/08/09 12:34:50;;;;;;;3.72;2.33;;;24.80;99.90;;;;;;5008122;28;20195;-79
2023/08/09 12:37:17;;;;;;;3.05;2.58;;;25.00;99.90;;;;;;4999679;28;20269;-81
2023/08/09 12:39:44;;;;;;;3.30;2.65;;;25.20;99.90;;;;;;5003553;28;20690;-81
2023/08/09 12:42:11;;;;;;;4.90;2.28;;;25.40;99.90;;;;;;5003250;28;20222;-82
2023/08/09 12:44:38;;;;;;;2.90;2.10;;;25.50;99.90;;;;;;5007052;28;20226;-79